Time;durP1;ratioP1;P1;durP2;ratioP2;P2;SDS_P1;SDS_P2;PMS_P1;PMS_P2;Temp;Humidity;BMP_temperature;BMP_pressure;BME280_temperature;BME280_humidity;BME280_pressure;Samples;Min_cycle;Max_cycle;Signal;HPM_P1;HPM_P2
2021/05/23 00:00:35;;;;;;;3.20;0.40;;;12.70;99.90;;;;;;5072338;28;20047;-65
2021/05/23 00:03:08;;;;;;;1.05;0.50;;;12.70;99.90;;;;;;5074155;28;20031;-64
2021/05/23 00:05:39;;;;;;;1.33;0.70;;;12.70;99.90;;;;;;5076054;28;20055;-65
2021/05/23 00:08:13;;;;;;;1.30;0.60;;;12.70;99.90;;;;;;5076493;28;20154;-65
2021/05/23 00:11:07;;;;;;;1.25;0.40;;;12.70;99.90;;;;;;5075823;28;20058;-64
2021/05/23 00:13:42;;;;;;;2.40;0.50;;;12.70;99.90;;;;;;5076007;28;20033;-66
2021/05/23 00:16:20;;;;;;;1.08;0.70;;;12.70;99.90;;;;;;5075944;28;20032;-65
2021/05/23 00:18:49;;;;;;;0.77;0.60;;;12.70;99.90;;;;;;5076154;28;20504;-65
2021/05/23 00:21:16;;;;;;;1.50;0.60;;;12.80;99.90;;;;;;5075565;28;20052;-65
2021/05/23 00:23:42;;;;;;;1.23;0.50;;;12.80;99.90;;;;;;5075557;28;20039;-65
2021/05/23 00:26:08;;;;;;;1.80;0.77;;;12.80;99.90;;;;;;5057696;28;20028;-65
2021/05/23 00:28:35;;;;;;;1.98;0.50;;;12.80;99.90;;;;;;5075502;28;20047;-65
2021/05/23 00:31:01;;;;;;;1.33;0.73;;;12.80;99.90;;;;;;5075441;28;20033;-65
2021/05/23 00:33:27;;;;;;;1.20;0.50;;;12.80;99.90;;;;;;5075345;28;20507;-65
2021/05/23 00:35:53;;;;;;;1.90;0.52;;;12.80;99.90;;;;;;5075550;28;20036;-65
2021/05/23 00:38:18;;;;;;;1.13;0.50;;;12.90;99.90;;;;;;5075519;28;20042;-64
2021/05/23 00:40:44;;;;;;;3.23;0.57;;;12.90;99.90;;;;;;5075240;28;20098;-65
2021/05/23 00:43:16;;;;;;;1.40;0.50;;;12.90;99.90;;;;;;5077267;28;20034;-64
2021/05/23 00:45:42;;;;;;;1.25;0.60;;;12.90;99.90;;;;;;5057514;28;20032;-65
2021/05/23 00:48:08;;;;;;;1.25;0.60;;;12.90;99.90;;;;;;5075676;28;20020;-65
2021/05/23 00:50:35;;;;;;;1.00;0.43;;;12.90;99.90;;;;;;5074993;28;20382;-65
2021/05/23 00:53:02;;;;;;;2.35;0.60;;;12.90;99.90;;;;;;5074929;28;20162;-65
2021/05/23 00:55:28;;;;;;;1.30;0.60;;;12.90;99.90;;;;;;5075097;28;20029;-65
2021/05/23 00:57:54;;;;;;;1.63;0.60;;;12.90;99.90;;;;;;5075065;28;20027;-65
2021/05/23 01:00:32;;;;;;;1.25;0.70;;;12.80;99.90;;;;;;5079467;28;20028;-64
2021/05/23 01:03:02;;;;;;;0.80;0.40;;;12.80;99.90;;;;;;5075098;28;20473;-64
2021/05/23 01:05:29;;;;;;;1.30;0.47;;;12.80;99.90;;;;;;5074852;28;20047;-65
2021/05/23 01:07:54;;;;;;;0.80;0.60;;;12.80;99.90;;;;;;5074954;28;20388;-65
2021/05/23 01:10:22;;;;;;;1.33;0.60;;;12.80;99.90;;;;;;5074697;28;20040;-65
2021/05/23 01:12:54;;;;;;;3.00;0.75;;;12.80;99.90;;;;;;5074707;28;20024;-65
2021/05/23 01:15:39;;;;;;;1.90;0.63;;;12.80;99.90;;;;;;5074835;28;20035;-64
2021/05/23 01:18:12;;;;;;;2.85;0.63;;;12.80;99.90;;;;;;5075015;28;20021;-65
2021/05/23 01:20:55;;;;;;;3.05;0.55;;;12.80;99.90;;;;;;5074619;28;20023;-65
2021/05/23 01:23:30;;;;;;;3.67;0.68;;;12.80;99.90;;;;;;5074546;28;20067;-65
2021/05/23 01:26:04;;;;;;;1.95;0.80;;;12.80;99.90;;;;;;5074846;28;20098;-64
2021/05/23 01:28:36;;;;;;;1.95;0.47;;;12.70;99.90;;;;;;5056255;28;20115;-64
2021/05/23 01:31:06;;;;;;;2.85;0.70;;;12.70;99.90;;;;;;5074207;28;20430;-64
2021/05/23 01:33:31;;;;;;;1.33;0.63;;;12.70;99.90;;;;;;5074453;28;20028;-65
2021/05/23 01:35:59;;;;;;;1.48;0.70;;;12.70;99.90;;;;;;5074715;28;20488;-65
2021/05/23 01:38:26;;;;;;;2.40;0.70;;;12.80;99.90;;;;;;5074415;28;20028;-65
2021/05/23 01:40:56;;;;;;;3.40;0.70;;;12.80;99.90;;;;;;5073850;28;20134;-65
2021/05/23 01:43:23;;;;;;;2.67;0.60;;;12.80;99.90;;;;;;5074146;28;20024;-64
2021/05/23 01:45:49;;;;;;;2.03;0.68;;;12.70;99.90;;;;;;5074037;28;20048;-65
2021/05/23 01:48:15;;;;;;;1.10;0.60;;;12.70;99.90;;;;;;5074393;28;20025;-64
2021/05/23 01:50:40;;;;;;;1.75;0.60;;;12.70;99.90;;;;;;5073988;28;20057;-65
2021/05/23 01:53:07;;;;;;;3.55;0.70;;;12.60;99.90;;;;;;5074002;28;20031;-65
2021/05/23 01:55:33;;;;;;;;;;;12.60;99.90;;;;;;5056185;28;20021;-64
2021/05/23 01:57:59;;;;;;;3.40;0.50;;;12.60;99.90;;;;;;5073801;28;19911;-65
2021/05/23 02:00:30;;;;;;;1.70;0.80;;;12.60;99.90;;;;;;5055685;28;20508;-64
2021/05/23 02:02:56;;;;;;;2.25;0.90;;;12.60;99.90;;;;;;5055538;28;20119;-65
2021/05/23 02:05:22;;;;;;;1.17;0.50;;;12.60;99.90;;;;;;5073764;28;20455;-65
2021/05/23 02:07:47;;;;;;;1.15;0.50;;;12.50;99.90;;;;;;5073428;28;20032;-65
2021/05/23 02:10:18;;;;;;;6.90;0.90;;;12.50;99.90;;;;;;5055287;28;20032;-65
2021/05/23 02:12:45;;;;;;;2.97;0.63;;;12.60;99.90;;;;;;5073823;28;20021;-64
2021/05/23 02:15:14;;;;;;;0.75;0.50;;;12.60;99.90;;;;;;5073321;28;20099;-64
2021/05/23 02:17:41;;;;;;;2.90;0.70;;;12.50;99.90;;;;;;5073463;28;20027;-65
2021/05/23 02:20:10;;;;;;;3.80;0.85;;;12.50;99.90;;;;;;5073463;28;20025;-65
2021/05/23 02:22:44;;;;;;;1.48;0.70;;;12.50;99.90;;;;;;5073314;28;20124;-64
2021/05/23 02:25:11;;;;;;;1.35;0.60;;;12.40;99.90;;;;;;5072912;28;20052;-65
2021/05/23 02:27:38;;;;;;;2.33;0.70;;;12.40;99.90;;;;;;5072793;28;20500;-65
2021/05/23 02:30:13;;;;;;;2.70;0.77;;;12.40;99.90;;;;;;5073213;28;20028;-65
2021/05/23 02:32:39;;;;;;;2.00;0.55;;;12.40;99.90;;;;;;5073404;28;20051;-65
2021/05/23 02:35:06;;;;;;;3.93;0.77;;;12.30;99.90;;;;;;5073145;28;20481;-64
2021/05/23 02:37:32;;;;;;;1.60;0.70;;;12.30;99.90;;;;;;5073450;28;20024;-65
2021/05/23 02:40:01;;;;;;;3.75;1.25;;;12.20;99.90;;;;;;5073177;28;20480;-65
2021/05/23 02:42:26;;;;;;;3.25;1.10;;;12.20;99.90;;;;;;5073122;28;20505;-65
2021/05/23 02:44:52;;;;;;;2.70;1.00;;;12.20;99.90;;;;;;5073043;28;20028;-66
2021/05/23 02:47:18;;;;;;;2.73;0.57;;;12.10;99.90;;;;;;5073004;28;20036;-65
2021/05/23 02:49:44;;;;;;;4.18;0.70;;;12.10;99.90;;;;;;5072835;28;20029;-65
2021/05/23 02:52:11;;;;;;;1.90;0.70;;;12.10;99.90;;;;;;5073031;28;20032;-64
2021/05/23 02:54:37;;;;;;;3.65;0.70;;;12.10;99.90;;;;;;5073013;28;20259;-65
2021/05/23 02:57:04;;;;;;;1.58;0.50;;;12.20;99.90;;;;;;5073145;28;20024;-65
2021/05/23 02:59:29;;;;;;;2.30;1.13;;;12.10;99.90;;;;;;5073000;28;20047;-64
2021/05/23 03:01:55;;;;;;;3.17;0.77;;;12.30;99.90;;;;;;5073544;28;20028;-66
2021/05/23 03:04:20;;;;;;;1.43;0.60;;;12.20;99.90;;;;;;5073624;28;20071;-66
2021/05/23 03:06:46;;;;;;;2.43;0.90;;;12.20;99.90;;;;;;5073278;28;20052;-65
2021/05/23 03:09:12;;;;;;;2.20;0.67;;;12.10;99.90;;;;;;5073097;28;20060;-66
2021/05/23 03:11:38;;;;;;;2.22;0.65;;;12.00;99.90;;;;;;5075316;28;20016;-65
2021/05/23 03:14:04;;;;;;;2.10;0.80;;;11.90;99.90;;;;;;5073201;28;20532;-63
2021/05/23 03:16:29;;;;;;;1.60;0.77;;;11.90;99.90;;;;;;5072720;28;20024;-65
2021/05/23 03:18:55;;;;;;;1.83;0.83;;;11.80;99.90;;;;;;5072729;28;20199;-65
2021/05/23 03:21:21;;;;;;;2.77;0.90;;;11.70;99.90;;;;;;5073250;28;20057;-64
2021/05/23 03:23:46;;;;;;;5.45;0.85;;;11.70;99.90;;;;;;5072720;28;20039;-66
2021/05/23 03:26:12;;;;;;;2.07;0.70;;;11.70;99.90;;;;;;5072809;28;20028;-66
2021/05/23 03:28:37;;;;;;;2.83;0.70;;;11.60;99.90;;;;;;5072999;28;20424;-65
2021/05/23 03:31:03;;;;;;;4.03;0.97;;;11.50;99.90;;;;;;5072745;28;20060;-65
2021/05/23 03:33:29;;;;;;;1.83;0.70;;;11.50;99.90;;;;;;5072884;28;20024;-64
2021/05/23 03:35:54;;;;;;;2.90;1.17;;;11.40;99.90;;;;;;5072731;28;20070;-64
2021/05/23 03:38:20;;;;;;;2.10;0.97;;;11.30;99.90;;;;;;5057326;28;20051;-64
2021/05/23 03:40:45;;;;;;;1.63;0.80;;;11.40;99.90;;;;;;5076626;28;20422;-65
2021/05/23 03:43:11;;;;;;;4.07;1.03;;;11.30;99.90;;;;;;5077558;28;20405;-65
2021/05/23 03:45:37;;;;;;;2.25;0.73;;;11.30;99.90;;;;;;5076658;28;20025;-64
2021/05/23 03:48:03;;;;;;;1.58;0.95;;;11.30;99.90;;;;;;5076550;28;20056;-64
2021/05/23 03:50:29;;;;;;;1.20;0.70;;;11.20;99.90;;;;;;5076186;28;20025;-65
2021/05/23 03:52:56;;;;;;;4.67;0.80;;;11.20;99.90;;;;;;5076285;28;20366;-65
2021/05/23 03:55:22;;;;;;;1.88;0.80;;;11.30;99.90;;;;;;5076079;28;20682;-65
2021/05/23 03:57:49;;;;;;;3.05;0.90;;;11.20;99.90;;;;;;5076287;28;20072;-64
2021/05/23 04:00:15;;;;;;;;;;;11.20;99.90;;;;;;5076372;28;20058;-65
2021/05/23 04:02:44;;;;;;;2.30;0.70;;;11.20;99.90;;;;;;5075966;28;19904;-64
2021/05/23 04:05:10;;;;;;;1.45;0.75;;;11.20;99.90;;;;;;5075826;28;20068;-65
2021/05/23 04:07:36;;;;;;;1.92;0.90;;;11.20;99.90;;;;;;5077711;28;20032;-64
2021/05/23 04:10:03;;;;;;;2.03;0.87;;;11.20;99.90;;;;;;5075382;28;20037;-64
2021/05/23 04:12:33;;;;;;;0.65;0.52;;;11.30;99.90;;;;;;5058071;28;20372;-65
2021/05/23 04:14:59;;;;;;;1.98;0.70;;;11.30;99.90;;;;;;5075919;28;20021;-65
2021/05/23 04:17:27;;;;;;;1.90;0.60;;;11.40;99.90;;;;;;5075697;28;20559;-64
2021/05/23 04:19:52;;;;;;;1.55;0.60;;;11.40;99.90;;;;;;5075529;28;20021;-64
2021/05/23 04:22:18;;;;;;;4.10;1.20;;;11.40;99.90;;;;;;5075682;28;20028;-65
2021/05/23 04:24:43;;;;;;;3.85;1.25;;;11.40;99.90;;;;;;5075489;28;20483;-64
2021/05/23 04:27:09;;;;;;;1.67;1.00;;;11.50;99.90;;;;;;5075426;28;20032;-64
2021/05/23 04:29:35;;;;;;;1.30;0.70;;;11.50;99.90;;;;;;5075328;28;20442;-64
2021/05/23 04:32:02;;;;;;;4.15;0.70;;;11.50;99.90;;;;;;5075323;28;20082;-64
2021/05/23 04:34:29;;;;;;;1.58;0.65;;;11.50;99.90;;;;;;5075532;28;20091;-65
2021/05/23 04:36:55;;;;;;;;;;;11.60;99.90;;;;;;5075547;28;20020;-63
2021/05/23 04:39:21;;;;;;;1.15;0.45;;;11.60;99.90;;;;;;5076895;28;20012;-65
2021/05/23 04:41:47;;;;;;;1.08;0.70;;;11.60;99.90;;;;;;5077578;28;20242;-64
2021/05/23 04:44:13;;;;;;;1.50;0.80;;;11.70;99.90;;;;;;5075420;28;20489;-64
2021/05/23 04:46:38;;;;;;;2.50;0.70;;;11.70;99.90;;;;;;5075190;28;20366;-65
2021/05/23 04:49:04;;;;;;;3.55;0.80;;;11.80;99.90;;;;;;5074517;28;20060;-65
2021/05/23 04:51:30;;;;;;;3.20;0.70;;;11.80;99.90;;;;;;5075296;28;20021;-65
2021/05/23 04:53:55;;;;;;;2.00;0.93;;;11.80;99.90;;;;;;5056847;28;20278;-64
2021/05/23 04:56:21;;;;;;;1.77;0.80;;;11.90;99.90;;;;;;5075029;28;20417;-65
2021/05/23 04:58:47;;;;;;;3.40;0.70;;;11.90;99.90;;;;;;5076623;28;20270;-64
2021/05/23 05:01:13;;;;;;;2.38;0.85;;;12.00;99.90;;;;;;5075482;28;20104;-65
2021/05/23 05:03:38;;;;;;;1.43;0.60;;;12.00;99.90;;;;;;5074772;28;20067;-65
2021/05/23 05:06:04;;;;;;;2.33;0.60;;;11.90;99.90;;;;;;5074970;28;20158;-65
2021/05/23 05:08:30;;;;;;;2.13;0.60;;;12.00;99.90;;;;;;5074694;28;20039;-64
2021/05/23 05:10:55;;;;;;;3.27;0.60;;;12.10;99.90;;;;;;5075206;28;20344;-64
2021/05/23 05:13:21;;;;;;;3.33;0.60;;;12.20;99.90;;;;;;5074579;28;20035;-64
2021/05/23 05:15:47;;;;;;;4.67;0.80;;;12.30;99.90;;;;;;5074641;28;20028;-65
2021/05/23 05:18:12;;;;;;;1.73;0.70;;;12.30;99.90;;;;;;5074549;28;20060;-64
2021/05/23 05:20:39;;;;;;;2.58;1.23;;;12.40;99.90;;;;;;5075932;28;20389;-64
2021/05/23 05:23:05;;;;;;;3.50;0.80;;;12.30;99.90;;;;;;5074907;28;20021;-65
2021/05/23 05:25:30;;;;;;;3.50;0.50;;;12.40;99.90;;;;;;5056583;28;20032;-65
2021/05/23 05:27:59;;;;;;;2.50;0.65;;;12.50;99.90;;;;;;5074384;28;20103;-64
2021/05/23 05:30:26;;;;;;;4.05;0.80;;;12.60;99.90;;;;;;5074232;28;20016;-64
2021/05/23 05:32:51;;;;;;;1.17;0.60;;;12.60;99.90;;;;;;5075163;28;20055;-64
2021/05/23 05:35:17;;;;;;;2.42;0.65;;;12.70;99.90;;;;;;5076091;28;20079;-64
2021/05/23 05:37:43;;;;;;;2.78;0.50;;;12.70;99.90;;;;;;5058164;28;20469;-64
2021/05/23 05:40:10;;;;;;;4.80;0.70;;;12.70;99.90;;;;;;5076469;28;20021;-64
2021/05/23 05:42:35;;;;;;;;;;;12.70;99.90;;;;;;5076116;28;20436;-64
2021/05/23 05:45:02;;;;;;;1.67;0.50;;;12.70;99.90;;;;;;5074974;28;19905;-64
2021/05/23 05:47:27;;;;;;;2.20;0.60;;;12.60;99.90;;;;;;5075368;28;20060;-64
2021/05/23 05:49:53;;;;;;;2.03;0.50;;;12.60;99.90;;;;;;5074201;28;20075;-65
2021/05/23 05:52:19;;;;;;;1.42;0.70;;;12.50;99.90;;;;;;5076263;28;20093;-64
2021/05/23 05:54:45;;;;;;;4.68;0.65;;;12.50;99.90;;;;;;5073959;28;20366;-65
2021/05/23 05:57:11;;;;;;;2.88;0.73;;;12.50;99.90;;;;;;5074939;28;20027;-63
2021/05/23 05:59:37;;;;;;;2.70;0.60;;;12.50;99.90;;;;;;5073831;28;20490;-64
2021/05/23 06:02:06;;;;;;;1.73;0.70;;;12.50;99.90;;;;;;5073694;28;20021;-64
2021/05/23 06:04:32;;;;;;;2.63;1.23;;;12.60;99.90;;;;;;5073596;28;20050;-64
2021/05/23 06:07:03;;;;;;;2.72;0.73;;;12.70;99.90;;;;;;5073971;28;20506;-64
2021/05/23 06:09:29;;;;;;;2.40;0.55;;;12.70;99.90;;;;;;5074031;28;20538;-63
2021/05/23 06:11:55;;;;;;;3.23;0.50;;;12.90;99.90;;;;;;5073822;28;20021;-64
2021/05/23 06:14:20;;;;;;;3.83;1.57;;;13.00;99.90;;;;;;5073872;28;20380;-65
2021/05/23 06:16:46;;;;;;;3.63;0.70;;;13.00;99.90;;;;;;5073541;28;20481;-64
2021/05/23 06:19:12;;;;;;;2.78;0.85;;;12.90;99.90;;;;;;5073187;28;20743;-64
2021/05/23 06:21:38;;;;;;;2.47;0.50;;;12.90;99.90;;;;;;5073374;28;20052;-64
2021/05/23 06:24:06;;;;;;;3.97;0.80;;;12.90;99.90;;;;;;5074112;28;20063;-65
2021/05/23 06:26:32;;;;;;;2.95;0.88;;;12.90;99.90;;;;;;5074343;28;20317;-65
2021/05/23 06:28:58;;;;;;;2.03;0.70;;;13.00;99.90;;;;;;5073505;28;20111;-64
2021/05/23 06:31:26;;;;;;;1.53;0.80;;;13.00;99.90;;;;;;5074169;28;20040;-65
2021/05/23 06:33:52;;;;;;;5.45;0.70;;;13.00;99.90;;;;;;5073362;28;20052;-65
2021/05/23 06:36:18;;;;;;;2.38;0.90;;;13.10;99.90;;;;;;5073178;28;20367;-66
2021/05/23 06:38:44;;;;;;;2.60;0.60;;;13.20;99.90;;;;;;5073033;28;20035;-65
2021/05/23 06:41:09;;;;;;;2.05;0.75;;;13.20;99.90;;;;;;5072948;28;20060;-65
2021/05/23 06:43:35;;;;;;;1.50;0.50;;;13.30;99.90;;;;;;5072990;28;20040;-64
2021/05/23 06:46:00;;;;;;;2.00;0.87;;;13.40;99.90;;;;;;5074756;28;20262;-65
2021/05/23 06:48:26;;;;;;;5.00;0.90;;;13.40;99.90;;;;;;5073075;28;20393;-64
2021/05/23 06:50:52;;;;;;;6.80;1.20;;;13.60;99.90;;;;;;5072841;28;20024;-65
2021/05/23 06:53:18;;;;;;;4.18;0.90;;;13.60;99.90;;;;;;5073312;28;20035;-65
2021/05/23 06:55:44;;;;;;;2.78;0.70;;;13.60;99.90;;;;;;5073025;28;20031;-66
2021/05/23 06:58:11;;;;;;;1.77;0.55;;;13.60;99.90;;;;;;5072879;28;20036;-65
2021/05/23 07:00:36;;;;;;;2.63;0.90;;;13.80;99.90;;;;;;5072993;28;20024;-65
2021/05/23 07:03:02;;;;;;;2.30;0.73;;;13.80;99.90;;;;;;5072733;28;20036;-66
2021/05/23 07:05:28;;;;;;;1.63;0.52;;;13.80;99.90;;;;;;5073241;28;20349;-64
2021/05/23 07:07:53;;;;;;;3.10;0.77;;;14.00;99.90;;;;;;5073133;28;20451;-65
2021/05/23 07:10:19;;;;;;;2.58;0.88;;;14.10;99.90;;;;;;5073907;28;20064;-65
2021/05/23 07:12:45;;;;;;;2.97;0.80;;;14.10;99.90;;;;;;5074729;28;20115;-66
2021/05/23 07:15:11;;;;;;;3.33;0.80;;;14.10;99.90;;;;;;5077110;28;20074;-67
2021/05/23 07:17:37;;;;;;;2.47;0.70;;;14.10;99.90;;;;;;5077223;28;20078;-65
2021/05/23 07:20:06;;;;;;;2.17;0.70;;;14.10;99.90;;;;;;5076874;28;20016;-65
2021/05/23 07:22:32;;;;;;;3.83;0.90;;;14.10;99.90;;;;;;5058929;28;20033;-66
2021/05/23 07:24:58;;;;;;;5.57;0.73;;;14.10;99.90;;;;;;5058829;28;20043;-64
2021/05/23 07:27:23;;;;;;;4.67;0.80;;;13.90;99.90;;;;;;5076812;28;20036;-65
2021/05/23 07:29:49;;;;;;;1.70;0.80;;;13.80;99.90;;;;;;5076824;28;20108;-66
2021/05/23 07:32:14;;;;;;;1.00;0.60;;;13.90;99.90;;;;;;5076597;28;20033;-65
2021/05/23 07:34:40;;;;;;;3.53;1.00;;;14.00;99.90;;;;;;5077465;28;20016;-65
2021/05/23 07:37:06;;;;;;;2.77;1.00;;;14.20;99.90;;;;;;5058509;28;20286;-66
2021/05/23 07:39:31;;;;;;;4.68;2.45;;;14.40;99.90;;;;;;5079181;28;20540;-65
2021/05/23 07:41:57;;;;;;;4.00;0.83;;;14.40;99.90;;;;;;5076504;28;20040;-65
2021/05/23 07:44:23;;;;;;;2.37;0.73;;;14.40;99.90;;;;;;5076425;28;20263;-65
2021/05/23 07:46:48;;;;;;;3.22;0.77;;;14.40;99.90;;;;;;5076374;28;20086;-66
2021/05/23 07:49:16;;;;;;;2.60;0.60;;;14.40;99.90;;;;;;5076218;28;20025;-66
2021/05/23 07:51:42;;;;;;;2.58;1.10;;;14.40;99.90;;;;;;5076332;28;20028;-66
2021/05/23 07:54:08;;;;;;;1.45;0.60;;;14.30;99.90;;;;;;5058238;28;20028;-66
2021/05/23 07:56:33;;;;;;;2.87;0.70;;;14.20;99.90;;;;;;5076200;28;20024;-64
2021/05/23 07:58:59;;;;;;;1.00;0.60;;;14.20;99.90;;;;;;5076531;28;20282;-65
2021/05/23 08:01:25;;;;;;;1.07;0.60;;;14.20;99.90;;;;;;5076155;28;20385;-65
2021/05/23 08:03:50;;;;;;;1.83;0.50;;;14.30;99.90;;;;;;5076107;28;20642;-65
2021/05/23 08:06:17;;;;;;;3.10;0.77;;;14.40;99.90;;;;;;5076084;28;20020;-65
2021/05/23 08:08:43;;;;;;;2.35;0.85;;;14.50;99.90;;;;;;5075767;28;20739;-65
2021/05/23 08:11:09;;;;;;;1.35;0.60;;;14.40;99.90;;;;;;5075652;28;20047;-65
2021/05/23 08:13:34;;;;;;;1.38;0.80;;;14.30;99.90;;;;;;5076382;28;20138;-65
2021/05/23 08:16:00;;;;;;;3.93;0.67;;;14.30;99.90;;;;;;5076108;28;20472;-65
2021/05/23 08:18:29;;;;;;;4.45;0.70;;;14.20;99.90;;;;;;5076728;28;20255;-65
2021/05/23 08:20:59;;;;;;;5.68;1.00;;;14.30;99.90;;;;;;5057938;28;20483;-68
2021/05/23 08:23:26;;;;;;;2.95;0.85;;;14.30;99.90;;;;;;5075805;28;20029;-65
2021/05/23 08:25:53;;;;;;;1.73;0.60;;;15.80;99.90;;;;;;5076353;28;20075;-66
2021/05/23 08:28:19;;;;;;;1.90;0.98;;;18.00;98.10;;;;;;5076130;28;20051;-66
2021/05/23 08:30:44;;;;;;;5.25;3.75;;;20.20;93.50;;;;;;5058303;28;20024;-67
2021/05/23 08:33:12;;;;;;;2.10;0.80;;;21.30;87.90;;;;;;5076033;28;20031;-67
2021/05/23 08:35:38;;;;;;;2.13;0.65;;;22.60;82.30;;;;;;5075793;28;20424;-66
2021/05/23 08:38:04;;;;;;;3.25;1.20;;;23.40;76.70;;;;;;5075838;28;20070;-67
2021/05/23 08:40:30;;;;;;;;;;;23.50;72.90;;;;;;5076407;28;20040;-65
2021/05/23 08:42:56;;;;;;;6.68;0.90;;;24.60;70.00;;;;;;5075299;28;19904;-66
2021/05/23 08:45:21;;;;;;;;;;;24.50;66.70;;;;;;5075718;28;20028;-65
2021/05/23 08:47:47;;;;;;;1.90;0.90;;;22.50;68.50;;;;;;5075295;28;19904;-66
2021/05/23 08:50:18;;;;;;;4.53;1.02;;;21.70;72.20;;;;;;5075673;28;20020;-63
2021/05/23 08:52:44;;;;;;;6.00;1.00;;;21.30;74.00;;;;;;5074955;28;20020;-64
2021/05/23 08:55:11;;;;;;;2.95;0.70;;;20.70;73.70;;;;;;5057122;28;20333;-65
2021/05/23 08:57:36;;;;;;;2.35;1.02;;;19.90;75.40;;;;;;5075264;28;20415;-65
2021/05/23 09:00:06;;;;;;;11.52;1.23;;;19.50;75.10;;;;;;5075100;28;20020;-64
2021/05/23 09:02:31;;;;;;;2.20;0.63;;;19.30;75.90;;;;;;5074679;28;20029;-63
2021/05/23 09:04:57;;;;;;;2.83;0.90;;;19.00;75.90;;;;;;5056718;28;20028;-65
2021/05/23 09:07:22;;;;;;;2.53;0.70;;;19.00;76.50;;;;;;5074800;28;20024;-63
2021/05/23 09:09:49;;;;;;;4.00;0.70;;;19.30;75.80;;;;;;5074469;28;20586;-64
2021/05/23 09:12:17;;;;;;;1.35;0.60;;;21.00;72.90;;;;;;5074593;28;20103;-64
2021/05/23 09:14:48;;;;;;;2.35;0.70;;;22.00;69.20;;;;;;5074699;28;20048;-66
2021/05/23 09:17:25;;;;;;;1.83;0.45;;;22.60;66.20;;;;;;5074702;28;20077;-66
2021/05/23 09:19:52;;;;;;;2.85;0.70;;;22.40;65.50;;;;;;5074589;28;20032;-66
2021/05/23 09:22:23;;;;;;;3.90;0.93;;;21.70;65.70;;;;;;5074213;28;20020;-65
2021/05/23 09:24:54;;;;;;;2.95;0.60;;;20.90;67.70;;;;;;5074755;28;20059;-66
2021/05/23 09:27:27;;;;;;;2.35;0.80;;;20.00;70.60;;;;;;5074505;28;20487;-65
2021/05/23 09:30:14;;;;;;;1.30;0.50;;;18.80;74.90;;;;;;5074737;28;20027;-65
2021/05/23 09:32:44;;;;;;;3.63;0.50;;;18.00;77.10;;;;;;5074468;28;20052;-65
2021/05/23 09:35:10;;;;;;;2.35;0.60;;;17.40;80.80;;;;;;5074087;28;20025;-64
2021/05/23 09:37:37;;;;;;;3.47;0.80;;;16.70;87.10;;;;;;5075737;28;20024;-65
2021/05/23 09:40:18;;;;;;;4.28;0.82;;;16.40;90.70;;;;;;5074651;28;20441;-67
2021/05/23 09:42:49;;;;;;;6.32;1.23;;;16.10;92.90;;;;;;5074756;28;20377;-65
2021/05/23 09:45:15;;;;;;;5.65;0.93;;;15.80;94.50;;;;;;5074329;28;20032;-65
2021/05/23 09:47:59;;;;;;;1.27;0.80;;;15.60;95.70;;;;;;5074530;28;20027;-65
2021/05/23 09:50:39;;;;;;;5.30;0.80;;;15.30;96.90;;;;;;5074145;28;20025;-66
2021/05/23 09:53:20;;;;;;;3.20;1.00;;;15.50;97.60;;;;;;5073814;28;20028;-64
2021/05/23 09:56:12;;;;;;;1.70;0.80;;;16.00;97.40;;;;;;5055832;28;20020;-66
2021/05/23 09:58:45;;;;;;;3.50;1.67;;;17.40;94.10;;;;;;5074267;28;20124;-66
2021/05/23 10:01:23;;;;;;;2.33;0.90;;;17.90;93.10;;;;;;5073635;28;20557;-65
2021/05/23 10:03:49;;;;;;;4.57;1.00;;;17.70;92.30;;;;;;5073691;28;20115;-65
2021/05/23 10:06:33;;;;;;;2.53;0.75;;;17.20;92.40;;;;;;5073985;28;20147;-65
2021/05/23 10:08:58;;;;;;;2.22;0.98;;;16.80;93.40;;;;;;5055936;28;20036;-64
2021/05/23 10:11:26;;;;;;;2.83;0.82;;;16.40;94.40;;;;;;5074386;28;20116;-64
2021/05/23 10:13:52;;;;;;;3.17;0.88;;;16.40;94.50;;;;;;5073795;28;20078;-66
2021/05/23 10:16:18;;;;;;;4.35;1.13;;;16.40;94.10;;;;;;5074046;28;20025;-65
2021/05/23 10:18:45;;;;;;;3.45;0.98;;;16.30;94.30;;;;;;5074262;28;20024;-65
2021/05/23 10:21:11;;;;;;;2.03;0.73;;;16.20;95.20;;;;;;5073955;28;20035;-64
2021/05/23 10:23:47;;;;;;;2.30;0.90;;;15.90;95.30;;;;;;5073633;28;20044;-65
2021/05/23 10:26:14;;;;;;;3.83;1.35;;;15.80;96.70;;;;;;5073351;28;20029;-65
2021/05/23 10:28:42;;;;;;;3.38;1.33;;;15.90;98.20;;;;;;5073444;28;20363;-65
2021/05/23 10:31:09;;;;;;;1.98;0.70;;;16.10;97.10;;;;;;5073175;28;20052;-65
2021/05/23 10:33:35;;;;;;;4.25;0.98;;;16.40;95.30;;;;;;5073337;28;20024;-66
2021/05/23 10:36:00;;;;;;;2.30;0.85;;;16.50;94.30;;;;;;5073539;28;20530;-66
2021/05/23 10:38:27;;;;;;;3.70;0.90;;;16.60;94.20;;;;;;5073401;28;20550;-65
2021/05/23 10:40:54;;;;;;;3.33;0.80;;;16.80;94.10;;;;;;5073340;28;20032;-66
2021/05/23 10:43:26;;;;;;;4.82;1.10;;;17.10;93.50;;;;;;5073362;28;20533;-66
2021/05/23 10:46:13;;;;;;;1.80;0.80;;;17.40;92.40;;;;;;5073244;28;20125;-66
2021/05/23 10:48:51;;;;;;;4.68;1.05;;;17.70;91.10;;;;;;5072997;28;20020;-64
2021/05/23 10:51:18;;;;;;;2.55;0.85;;;18.10;90.60;;;;;;5073117;28;20020;-65
2021/05/23 10:53:44;;;;;;;3.92;0.70;;;18.40;90.20;;;;;;5073010;28;20025;-65
2021/05/23 10:56:25;;;;;;;4.05;1.35;;;18.50;88.60;;;;;;5073120;28;20397;-65
2021/05/23 10:59:01;;;;;;;3.40;0.80;;;18.20;87.70;;;;;;5073787;28;20359;-64
2021/05/23 11:01:41;;;;;;;5.03;0.65;;;17.70;91.50;;;;;;5074430;28;20103;-66
2021/05/23 11:04:16;;;;;;;2.63;0.90;;;17.20;90.90;;;;;;5072973;28;20033;-64
2021/05/23 11:06:43;;;;;;;2.22;0.77;;;18.00;90.50;;;;;;5073554;28;20388;-65
2021/05/23 11:09:14;;;;;;;4.35;1.00;;;18.40;88.90;;;;;;5073210;28;20568;-65
2021/05/23 11:11:40;;;;;;;3.55;1.83;;;19.00;89.40;;;;;;5073141;28;20512;-65
2021/05/23 11:14:19;;;;;;;;;;;19.30;85.20;;;;;;5073214;28;20162;-65
2021/05/23 11:16:45;;;;;;;2.28;0.60;;;19.20;83.30;;;;;;5055222;28;19969;-66
2021/05/23 11:19:13;;;;;;;2.10;0.90;;;18.90;83.50;;;;;;5073283;28;20059;-65
2021/05/23 11:21:42;;;;;;;4.38;0.85;;;18.80;83.80;;;;;;5072683;28;20080;-65
2021/05/23 11:24:09;;;;;;;2.72;0.98;;;18.70;82.00;;;;;;5072505;28;20028;-65
2021/05/23 11:26:35;;;;;;;3.42;0.90;;;18.50;82.50;;;;;;5072858;28;20030;-65
2021/05/23 11:29:02;;;;;;;1.75;0.57;;;18.40;81.90;;;;;;5072676;28;20020;-64
2021/05/23 11:31:31;;;;;;;3.83;1.15;;;18.40;83.20;;;;;;5072723;28;20031;-65
2021/05/23 11:33:58;;;;;;;3.50;0.90;;;18.20;81.60;;;;;;5072475;28;20024;-65
2021/05/23 11:36:25;;;;;;;2.25;0.68;;;18.00;81.90;;;;;;5072799;28;20028;-63
2021/05/23 11:38:57;;;;;;;3.28;0.60;;;17.90;81.50;;;;;;5072644;28;20115;-64
2021/05/23 11:41:30;;;;;;;2.42;0.63;;;18.00;79.40;;;;;;5072776;28;20331;-64
2021/05/23 11:43:58;;;;;;;5.70;0.90;;;18.40;79.20;;;;;;5072800;28;20477;-64
2021/05/23 11:46:25;;;;;;;2.60;1.00;;;18.50;79.00;;;;;;5072930;28;20032;-65
2021/05/23 11:48:52;;;;;;;1.90;0.70;;;18.60;75.80;;;;;;5054528;28;20505;-65
2021/05/23 11:51:25;;;;;;;1.42;0.70;;;18.30;74.00;;;;;;5072234;28;20025;-66
2021/05/23 11:53:55;;;;;;;1.42;0.70;;;18.00;75.70;;;;;;5072698;28;20094;-65
2021/05/23 11:56:24;;;;;;;4.93;0.98;;;17.80;76.40;;;;;;5073037;28;20016;-65
2021/05/23 11:58:58;;;;;;;2.55;0.98;;;17.60;76.70;;;;;;5074195;28;20527;-65
2021/05/23 12:01:27;;;;;;;2.75;0.85;;;17.40;77.30;;;;;;5076400;28;20028;-69
2021/05/23 12:04:06;;;;;;;1.95;0.82;;;17.30;78.10;;;;;;5076249;28;20024;-64
2021/05/23 12:06:34;;;;;;;3.03;0.80;;;17.10;78.60;;;;;;5076013;28;20060;-64
2021/05/23 12:09:08;;;;;;;3.45;0.93;;;17.10;78.20;;;;;;5075777;28;20024;-64
2021/05/23 12:11:48;;;;;;;2.60;0.70;;;17.10;78.70;;;;;;5077571;28;20025;-66
2021/05/23 12:14:30;;;;;;;3.78;0.90;;;16.90;82.20;;;;;;5077441;28;20074;-65
2021/05/23 12:17:05;;;;;;;2.47;0.82;;;16.60;84.30;;;;;;5076243;28;20086;-65
2021/05/23 12:19:53;;;;;;;1.85;0.80;;;16.50;85.50;;;;;;5076209;28;20040;-65
2021/05/23 12:22:21;;;;;;;2.63;0.70;;;16.50;85.10;;;;;;5075683;28;20020;-66
2021/05/23 12:24:49;;;;;;;1.45;0.60;;;16.50;85.20;;;;;;5075777;28;20017;-64
2021/05/23 12:27:28;;;;;;;2.38;0.60;;;16.70;85.40;;;;;;5057855;28;20028;-64
2021/05/23 12:30:09;;;;;;;1.75;0.57;;;16.70;83.70;;;;;;5075761;28;20504;-65
2021/05/23 12:32:59;;;;;;;3.88;0.60;;;16.80;83.70;;;;;;5076155;28;21988;-65
2021/05/23 12:35:33;;;;;;;2.35;0.50;;;17.10;83.30;;;;;;5076355;28;20071;-66
2021/05/23 12:38:03;;;;;;;2.83;1.13;;;17.30;82.20;;;;;;5076171;28;20021;-65
2021/05/23 12:40:32;;;;;;;2.03;0.60;;;17.40;82.90;;;;;;5076442;28;20458;-64
2021/05/23 12:43:13;;;;;;;4.70;0.80;;;17.50;82.50;;;;;;5076206;28;20067;-65
2021/05/23 12:45:40;;;;;;;1.58;0.60;;;17.60;82.00;;;;;;5076994;28;20059;-65
2021/05/23 12:48:08;;;;;;;0.88;0.47;;;17.60;81.50;;;;;;5075633;28;20025;-65
2021/05/23 12:50:41;;;;;;;3.65;0.93;;;17.70;81.40;;;;;;5075132;28;20024;-65
2021/05/23 12:53:08;;;;;;;4.20;1.05;;;17.80;80.80;;;;;;5075381;28;20043;-65